createdAt,value
2022-08-25T00:00:25.993Z,20.30
2022-08-25T00:01:27.020Z,18.90
2022-08-25T00:02:26.051Z,19.40
2022-08-25T00:03:25.988Z,18.90
2022-08-25T00:04:25.986Z,20.00
2022-08-25T00:05:26.085Z,22.60
2022-08-25T00:06:25.980Z,19.20
2022-08-25T00:07:25.981Z,19.10
2022-08-25T00:08:25.978Z,19.80
2022-08-25T00:09:25.978Z,22.30
2022-08-25T00:10:25.972Z,21.10
2022-08-25T00:11:25.970Z,21.70
2022-08-25T00:12:25.968Z,21.30
2022-08-25T00:13:25.966Z,23.20
2022-08-25T00:14:25.964Z,20.70
2022-08-25T00:15:25.964Z,23.20
2022-08-25T00:16:25.958Z,23.60
2022-08-25T00:17:25.958Z,21.70
2022-08-25T00:18:25.953Z,19.60
2022-08-25T00:19:25.955Z,22.70
2022-08-25T00:20:25.950Z,21.60
2022-08-25T00:21:25.947Z,21.80
2022-08-25T00:22:25.944Z,24.30
2022-08-25T00:23:25.944Z,21.80
2022-08-25T00:24:25.956Z,25.80
2022-08-25T00:25:25.941Z,21.80
2022-08-25T00:26:25.935Z,22.70
2022-08-25T00:27:25.965Z,22.60
2022-08-25T00:28:25.934Z,25.30
2022-08-25T00:29:25.932Z,21.50
2022-08-25T00:30:25.948Z,20.30
2022-08-25T00:31:37.518Z,21.50
2022-08-25T00:32:25.923Z,21.90
2022-08-25T00:33:25.920Z,22.00
2022-08-25T00:34:25.922Z,25.90
2022-08-25T00:35:25.918Z,24.50
2022-08-25T00:36:25.916Z,24.20
2022-08-25T00:37:25.912Z,25.80
2022-08-25T00:38:25.908Z,22.30
2022-08-25T00:39:25.908Z,26.60
2022-08-25T00:40:25.961Z,24.30
2022-08-25T00:41:25.904Z,23.00
2022-08-25T00:42:25.900Z,25.80
2022-08-25T00:43:25.900Z,22.30
2022-08-25T00:44:25.897Z,19.10
2022-08-25T00:45:25.892Z,21.40
2022-08-25T00:46:25.905Z,20.70
2022-08-25T00:47:25.889Z,19.00
2022-08-25T00:48:25.890Z,21.90
2022-08-25T00:49:25.885Z,23.00
2022-08-25T00:50:26.558Z,25.80
2022-08-25T00:51:25.881Z,25.00
2022-08-25T00:52:25.882Z,23.30
2022-08-25T00:53:25.875Z,24.70
2022-08-25T00:54:25.873Z,22.80
2022-08-25T00:55:25.870Z,22.50
2022-08-25T00:56:25.868Z,23.00
2022-08-25T00:57:34.061Z,23.50
2022-08-25T00:58:25.862Z,23.90
2022-08-25T00:59:25.865Z,26.40
2022-08-25T01:00:25.860Z,20.40
2022-08-25T01:01:25.924Z,22.40
2022-08-25T01:02:25.889Z,24.00
2022-08-25T01:03:32.854Z,22.80
2022-08-25T01:04:25.857Z,22.30
2022-08-25T01:05:25.848Z,21.10
2022-08-25T01:06:25.846Z,21.30
2022-08-25T01:07:25.843Z,25.50
2022-08-25T01:08:25.843Z,25.60
2022-08-25T01:09:25.839Z,23.90
2022-08-25T01:10:25.839Z,26.50
2022-08-25T01:11:25.835Z,25.20
2022-08-25T01:12:25.832Z,28.80
2022-08-25T01:13:25.833Z,27.40
2022-08-25T01:14:26.432Z,26.80
2022-08-25T01:15:25.911Z,29.90
2022-08-25T01:16:25.825Z,25.80
2022-08-25T01:17:25.820Z,28.90
2022-08-25T01:18:25.825Z,30.10
2022-08-25T01:19:25.816Z,24.50
2022-08-25T01:20:29.466Z,27.40
2022-08-25T01:21:25.810Z,26.40
2022-08-25T01:22:25.809Z,28.60
2022-08-25T01:23:25.806Z,27.60
2022-08-25T01:24:25.803Z,27.30
2022-08-25T01:25:25.800Z,27.90
2022-08-25T01:26:30.580Z,27.80
2022-08-25T01:27:25.795Z,29.30
2022-08-25T01:28:25.795Z,26.20
2022-08-25T01:29:25.791Z,27.20
2022-08-25T01:30:25.796Z,28.00
2022-08-25T01:31:25.915Z,25.40
2022-08-25T01:32:25.783Z,25.10
2022-08-25T01:33:25.780Z,23.60
2022-08-25T01:34:25.779Z,28.80
2022-08-25T01:35:25.776Z,28.20
2022-08-25T01:36:25.773Z,22.00
2022-08-25T01:37:25.775Z,22.00
2022-08-25T01:38:25.769Z,19.60
2022-08-25T01:39:25.765Z,19.70
2022-08-25T01:40:25.830Z,19.10
2022-08-25T01:41:25.762Z,19.20
2022-08-25T01:42:25.759Z,20.80
2022-08-25T01:43:25.755Z,22.00
2022-08-25T01:44:25.753Z,26.40
2022-08-25T01:45:25.751Z,25.00
2022-08-25T01:46:25.815Z,24.30
2022-08-25T01:47:25.749Z,24.50
2022-08-25T01:48:25.746Z,22.90
2022-08-25T01:49:25.741Z,23.70
2022-08-25T01:50:25.741Z,23.80
2022-08-25T01:51:25.752Z,21.60
2022-08-25T01:52:25.733Z,25.30
2022-08-25T01:53:25.732Z,27.30
2022-08-25T01:54:25.729Z,26.00
2022-08-25T01:55:25.726Z,30.10
2022-08-25T01:56:25.725Z,28.20
2022-08-25T01:57:25.722Z,29.60
2022-08-25T01:58:25.722Z,28.60
2022-08-25T01:59:25.723Z,28.40
2022-08-25T02:00:25.714Z,26.70
2022-08-25T02:01:25.803Z,26.10
2022-08-25T02:02:26.156Z,26.60
2022-08-25T02:03:25.709Z,28.40
2022-08-25T02:04:25.706Z,23.10
2022-08-25T02:05:25.701Z,25.40
2022-08-25T02:06:28.856Z,23.50
2022-08-25T02:07:25.697Z,22.30
2022-08-25T02:08:25.693Z,23.60
2022-08-25T02:09:25.691Z,19.20
2022-08-25T02:10:25.690Z,24.80
2022-08-25T02:11:25.686Z,21.40
2022-08-25T02:12:25.681Z,23.70
2022-08-25T02:13:26.823Z,25.70
2022-08-25T02:14:25.680Z,28.50
2022-08-25T02:15:25.679Z,24.20
2022-08-25T02:16:25.752Z,28.90
2022-08-25T02:17:25.673Z,28.80
2022-08-25T02:18:25.671Z,26.90
2022-08-25T02:19:25.670Z,26.60
2022-08-25T02:20:25.665Z,25.40
2022-08-25T02:21:25.661Z,22.60
2022-08-25T02:22:25.660Z,19.90
2022-08-25T02:23:25.657Z,22.10
2022-08-25T02:24:25.657Z,20.40
2022-08-25T02:25:25.657Z,24.40
2022-08-25T02:26:25.652Z,21.20
2022-08-25T02:27:25.650Z,21.70
2022-08-25T02:28:25.648Z,22.20
2022-08-25T02:29:25.643Z,23.90
2022-08-25T02:30:25.691Z,22.50
2022-08-25T02:31:25.638Z,24.60
2022-08-25T02:32:25.638Z,23.10
2022-08-25T02:33:25.634Z,27.40
2022-08-25T02:34:25.634Z,28.80
2022-08-25T02:35:25.628Z,31.10
2022-08-25T02:36:25.629Z,28.10
2022-08-25T02:37:25.632Z,26.80
2022-08-25T02:38:25.621Z,29.10
2022-08-25T02:39:25.620Z,31.80
2022-08-25T02:40:25.690Z,33.80
2022-08-25T02:41:31.128Z,33.30
2022-08-25T02:42:25.613Z,31.80
2022-08-25T02:43:25.612Z,33.60
2022-08-25T02:44:25.606Z,31.30
2022-08-25T02:45:25.608Z,28.20
2022-08-25T02:46:25.649Z,27.30
2022-08-25T02:47:27.091Z,31.10
2022-08-25T02:48:25.597Z,23.70
2022-08-25T02:49:25.591Z,24.00
2022-08-25T02:50:25.590Z,26.00
2022-08-25T02:51:25.594Z,22.00
2022-08-25T02:52:25.587Z,23.80
2022-08-25T02:53:25.586Z,23.10
2022-08-25T02:54:25.583Z,22.70
2022-08-25T02:55:25.578Z,24.70
2022-08-25T02:56:25.581Z,26.30
2022-08-25T02:57:25.576Z,25.60
2022-08-25T02:58:25.571Z,24.70
2022-08-25T02:59:25.568Z,27.70
2022-08-25T03:00:25.566Z,24.30
2022-08-25T03:01:28.693Z,21.80
2022-08-25T03:02:25.560Z,22.40
2022-08-25T03:03:25.565Z,29.10
2022-08-25T03:04:25.593Z,29.00
2022-08-25T03:05:25.557Z,30.70
2022-08-25T03:06:25.554Z,32.80
2022-08-25T03:07:25.551Z,30.10
2022-08-25T03:08:25.546Z,31.70
2022-08-25T03:09:25.545Z,38.10
2022-08-25T03:10:25.540Z,38.60
2022-08-25T03:11:25.539Z,37.90
2022-08-25T03:12:25.534Z,42.20
2022-08-25T03:13:25.532Z,40.20
2022-08-25T03:14:25.531Z,41.30
2022-08-25T03:15:25.533Z,38.00
2022-08-25T03:16:27.658Z,36.20
2022-08-25T03:17:25.526Z,38.40
2022-08-25T03:18:25.519Z,43.00
2022-08-25T03:19:25.518Z,33.70
2022-08-25T03:20:25.515Z,38.70
2022-08-25T03:21:25.512Z,34.60
2022-08-25T03:22:25.508Z,34.30
2022-08-25T03:23:25.506Z,31.70
2022-08-25T03:24:25.505Z,31.40
2022-08-25T03:25:25.502Z,35.80
2022-08-25T03:26:25.499Z,34.80
2022-08-25T03:27:25.497Z,37.50
2022-08-25T03:28:30.068Z,34.80
2022-08-25T03:29:25.489Z,41.10
2022-08-25T03:30:25.485Z,44.10
2022-08-25T03:31:25.524Z,47.00
2022-08-25T03:32:25.483Z,46.00
2022-08-25T03:33:25.480Z,50.50
2022-08-25T03:34:25.475Z,54.10
2022-08-25T03:35:25.477Z,50.70
2022-08-25T03:36:25.470Z,59.40
2022-08-25T03:37:25.468Z,55.90
2022-08-25T03:38:25.463Z,49.60
2022-08-25T03:39:25.463Z,52.70
2022-08-25T03:40:25.557Z,61.40
2022-08-25T03:41:25.647Z,85.20
2022-08-25T03:42:25.451Z,80.90
2022-08-25T03:43:25.453Z,86.80
2022-08-25T03:44:25.447Z,148.20
2022-08-25T03:45:25.512Z,97.90
2022-08-25T03:46:25.445Z,142.00
2022-08-25T03:47:25.442Z,158.70
2022-08-25T03:48:25.436Z,136.20
2022-08-25T03:49:25.434Z,166.90
2022-08-25T03:50:25.429Z,174.10
2022-08-25T03:51:25.427Z,204.60
2022-08-25T03:52:25.423Z,220.60
2022-08-25T03:53:25.422Z,212.90
2022-08-25T03:54:25.419Z,168.80
2022-08-25T03:55:25.419Z,174.00
2022-08-25T03:56:25.417Z,206.20
2022-08-25T03:57:25.416Z,197.40
2022-08-25T03:58:25.415Z,192.10
2022-08-25T03:59:25.403Z,244.70
2022-08-25T04:00:25.402Z,194.50
2022-08-25T04:01:25.519Z,211.60
2022-08-25T04:02:25.503Z,177.50
2022-08-25T04:03:25.391Z,205.50
2022-08-25T04:04:25.388Z,213.80
2022-08-25T04:05:26.779Z,141.20
2022-08-25T04:06:25.380Z,187.50
2022-08-25T04:07:25.380Z,206.90
2022-08-25T04:08:25.375Z,245.40
2022-08-25T04:09:25.370Z,192.80
2022-08-25T04:10:25.384Z,166.40
2022-08-25T04:11:25.379Z,159.20
2022-08-25T04:12:25.361Z,187.40
2022-08-25T04:13:25.359Z,168.20
2022-08-25T04:14:25.355Z,184.40
2022-08-25T04:15:28.503Z,124.60
2022-08-25T04:16:25.396Z,174.60
2022-08-25T04:17:25.347Z,190.60
2022-08-25T04:18:25.344Z,175.80
2022-08-25T04:19:25.340Z,185.10
2022-08-25T04:20:25.334Z,175.10
2022-08-25T04:21:25.336Z,170.20
2022-08-25T04:22:25.330Z,209.40
2022-08-25T04:23:25.327Z,189.10
2022-08-25T04:24:25.320Z,221.00
2022-08-25T04:25:25.324Z,212.50
2022-08-25T04:26:25.315Z,183.80
2022-08-25T04:27:25.315Z,201.60
2022-08-25T04:28:25.311Z,206.10
2022-08-25T04:29:25.308Z,198.80
2022-08-25T04:30:25.304Z,190.80
2022-08-25T04:31:25.362Z,229.60
2022-08-25T04:32:25.297Z,198.80
2022-08-25T04:33:25.296Z,176.80
2022-08-25T04:34:29.867Z,193.40
2022-08-25T04:35:25.292Z,223.00
2022-08-25T04:36:25.289Z,212.30
2022-08-25T04:37:25.284Z,239.70
2022-08-25T04:38:25.279Z,206.90
2022-08-25T04:39:25.277Z,209.20
2022-08-25T04:40:29.120Z,192.10
2022-08-25T04:41:25.269Z,193.10
2022-08-25T04:42:25.267Z,190.50
2022-08-25T04:43:25.267Z,242.30
2022-08-25T04:44:25.259Z,201.60
2022-08-25T04:45:25.300Z,201.50
2022-08-25T04:46:25.252Z,206.80
2022-08-25T04:47:25.252Z,191.40
2022-08-25T04:48:25.246Z,199.20
2022-08-25T04:49:25.250Z,230.80
2022-08-25T04:50:25.240Z,176.60
2022-08-25T04:51:25.238Z,175.20
2022-08-25T04:52:25.235Z,190.20
2022-08-25T04:53:25.230Z,203.60
2022-08-25T04:54:25.225Z,157.30
2022-08-25T04:55:25.222Z,204.70
2022-08-25T04:56:25.243Z,209.60
2022-08-25T04:57:25.216Z,195.40
2022-08-25T04:58:25.214Z,172.60
2022-08-25T04:59:29.534Z,163.70
2022-08-25T05:00:25.209Z,184.30
2022-08-25T05:01:25.263Z,148.60
2022-08-25T05:02:25.204Z,171.30
2022-08-25T05:03:25.198Z,165.50
2022-08-25T05:04:28.737Z,150.80
2022-08-25T05:05:25.194Z,136.80
2022-08-25T05:06:25.188Z,147.90
2022-08-25T05:07:25.188Z,145.50
2022-08-25T05:08:25.185Z,129.30
2022-08-25T05:09:25.342Z,125.90
2022-08-25T05:10:25.174Z,165.80
2022-08-25T05:11:25.175Z,141.90
2022-08-25T05:12:25.174Z,147.60
2022-08-25T05:13:25.167Z,116.10
2022-08-25T05:14:26.257Z,131.00
2022-08-25T05:15:25.164Z,144.80
2022-08-25T05:16:25.226Z,154.70
2022-08-25T05:17:25.156Z,120.10
2022-08-25T05:18:25.153Z,142.60
2022-08-25T05:19:25.150Z,156.90
2022-08-25T05:20:25.151Z,165.90
2022-08-25T05:21:25.141Z,110.60
2022-08-25T05:22:25.141Z,156.90
2022-08-25T05:23:25.138Z,147.40
2022-08-25T05:24:25.137Z,161.30
2022-08-25T05:25:25.132Z,162.60
2022-08-25T05:26:25.131Z,160.70
2022-08-25T05:27:25.126Z,166.90
2022-08-25T05:28:25.124Z,151.60
2022-08-25T05:29:25.122Z,160.00
2022-08-25T05:30:25.122Z,136.30
2022-08-25T05:31:25.272Z,144.30
2022-08-25T05:32:25.108Z,165.30
2022-08-25T05:33:25.113Z,120.70
2022-08-25T05:34:25.106Z,127.00
2022-08-25T05:35:25.103Z,115.90
2022-08-25T05:36:25.098Z,121.60
2022-08-25T05:37:25.099Z,142.00
2022-08-25T05:38:25.107Z,152.70
2022-08-25T05:39:25.092Z,133.60
2022-08-25T05:40:25.143Z,116.70
2022-08-25T05:41:25.085Z,139.00
2022-08-25T05:42:25.088Z,143.80
2022-08-25T05:43:25.082Z,169.90
2022-08-25T05:44:25.077Z,141.50
2022-08-25T05:45:25.110Z,218.50
2022-08-25T05:46:25.074Z,145.90
2022-08-25T05:47:25.068Z,149.30
2022-08-25T05:48:25.066Z,152.70
2022-08-25T05:49:25.062Z,176.20
2022-08-25T05:50:25.061Z,149.50
2022-08-25T05:51:25.056Z,179.70
2022-08-25T05:52:25.054Z,170.40
2022-08-25T05:53:25.055Z,176.00
2022-08-25T05:54:25.050Z,161.10
2022-08-25T05:55:25.046Z,175.70
2022-08-25T05:56:25.043Z,148.70
2022-08-25T05:57:25.041Z,143.00
2022-08-25T05:58:25.036Z,149.10
2022-08-25T05:59:25.037Z,170.00
2022-08-25T06:00:25.032Z,170.00
2022-08-25T06:01:25.060Z,175.50
2022-08-25T06:02:25.025Z,148.90
2022-08-25T06:03:25.118Z,156.10
2022-08-25T06:04:25.019Z,158.50
2022-08-25T06:05:25.016Z,139.30
2022-08-25T06:06:25.015Z,145.40
2022-08-25T06:07:25.013Z,153.70
2022-08-25T06:08:25.008Z,152.60
2022-08-25T06:09:25.005Z,145.90
2022-08-25T06:10:25.003Z,146.20
2022-08-25T06:11:25.002Z,157.50
2022-08-25T06:12:24.995Z,147.70
2022-08-25T06:13:28.633Z,165.20
2022-08-25T06:14:24.994Z,148.40
2022-08-25T06:15:24.986Z,145.70
2022-08-25T06:16:25.055Z,152.70
2022-08-25T06:17:24.987Z,130.70
2022-08-25T06:18:24.980Z,125.50
2022-08-25T06:19:24.975Z,131.00
2022-08-25T06:20:25.407Z,121.40
2022-08-25T06:21:24.971Z,140.00
2022-08-25T06:22:24.992Z,127.50
2022-08-25T06:23:24.969Z,119.30
2022-08-25T06:24:24.962Z,120.80
2022-08-25T06:25:24.963Z,118.70
2022-08-25T06:26:24.959Z,108.10
2022-08-25T06:27:24.953Z,106.10
2022-08-25T06:28:24.952Z,104.00
2022-08-25T06:29:24.949Z,122.20
2022-08-25T06:30:28.679Z,106.10
2022-08-25T06:31:24.990Z,100.70
2022-08-25T06:32:24.941Z,109.30
2022-08-25T06:33:24.939Z,102.70
2022-08-25T06:34:24.933Z,101.20
2022-08-25T06:35:24.933Z,96.60
2022-08-25T06:36:24.929Z,90.00
2022-08-25T06:37:25.379Z,87.40
2022-08-25T06:38:24.923Z,80.40
2022-08-25T06:39:24.918Z,72.00
2022-08-25T06:40:25.015Z,71.20
2022-08-25T06:41:24.915Z,70.10
2022-08-25T06:42:24.911Z,64.00
2022-08-25T06:43:24.910Z,58.70
2022-08-25T06:44:24.906Z,60.70
2022-08-25T06:45:24.902Z,58.30
2022-08-25T06:46:34.741Z,58.60
2022-08-25T06:47:25.000Z,57.80
2022-08-25T06:48:24.895Z,53.40
2022-08-25T06:49:24.894Z,56.40
2022-08-25T06:50:24.938Z,53.40
2022-08-25T06:51:24.899Z,52.20
2022-08-25T06:52:28.862Z,56.90
2022-08-25T06:53:24.890Z,54.30
2022-08-25T06:54:24.878Z,53.80
2022-08-25T06:55:24.879Z,56.70
2022-08-25T06:56:24.873Z,50.70
2022-08-25T06:57:24.871Z,54.60
2022-08-25T06:58:24.870Z,47.30
2022-08-25T06:59:24.867Z,45.60
2022-08-25T07:00:30.324Z,47.30
2022-08-25T07:01:25.883Z,43.90
2022-08-25T07:02:24.891Z,41.70
2022-08-25T07:03:24.913Z,46.90
2022-08-25T07:04:24.855Z,48.70
2022-08-25T07:05:33.432Z,46.40
2022-08-25T07:06:24.848Z,47.50
2022-08-25T07:07:24.844Z,47.90
2022-08-25T07:08:24.843Z,48.30
2022-08-25T07:09:24.848Z,42.50
2022-08-25T07:10:24.838Z,40.10
2022-08-25T07:11:24.839Z,40.30
2022-08-25T07:12:24.831Z,41.20
2022-08-25T07:13:24.828Z,38.80
2022-08-25T07:14:24.829Z,37.60
2022-08-25T07:15:24.830Z,37.50
2022-08-25T07:16:29.597Z,42.50
2022-08-25T07:17:24.818Z,45.10
2022-08-25T07:18:24.819Z,43.30
2022-08-25T07:19:24.823Z,42.70
2022-08-25T07:21:27.889Z,37.10
2022-08-25T07:22:24.809Z,43.20
2022-08-25T07:23:24.812Z,46.60
2022-08-25T07:24:24.806Z,44.70
2022-08-25T07:25:24.806Z,42.00
2022-08-25T07:26:37.267Z,45.10
2022-08-25T07:27:24.801Z,45.70
2022-08-25T07:28:25.348Z,45.30
2022-08-25T07:29:31.663Z,43.70
2022-08-25T07:30:24.793Z,45.90
2022-08-25T07:31:28.213Z,44.80
2022-08-25T07:32:24.790Z,45.60
2022-08-25T07:33:24.788Z,45.70
2022-08-25T07:34:25.546Z,47.40
2022-08-25T07:35:26.247Z,44.60
2022-08-25T07:36:24.784Z,46.80
2022-08-25T07:37:47.583Z,42.60
2022-08-25T07:38:24.774Z,46.70
2022-08-25T07:39:24.780Z,43.80
2022-08-25T07:40:24.940Z,48.50
2022-08-25T07:41:24.770Z,46.90
2022-08-25T07:42:24.767Z,43.70
2022-08-25T07:43:24.767Z,44.90
2022-08-25T07:44:24.767Z,42.70
2022-08-25T07:45:24.767Z,44.70
2022-08-25T07:46:24.780Z,40.20
2022-08-25T07:47:24.760Z,44.30
2022-08-25T07:48:24.761Z,40.00
2022-08-25T07:49:24.756Z,36.90
2022-08-25T07:50:24.757Z,34.80
2022-08-25T07:51:24.753Z,37.00
2022-08-25T07:52:24.752Z,35.40
2022-08-25T07:53:24.754Z,37.60
2022-08-25T07:54:24.750Z,32.60
2022-08-25T07:55:24.746Z,34.90
2022-08-25T07:56:24.745Z,35.70
2022-08-25T07:57:24.746Z,38.00
2022-08-25T07:58:24.743Z,31.60
2022-08-25T07:59:24.743Z,34.60
2022-08-25T08:00:24.757Z,31.90
2022-08-25T08:01:24.799Z,31.60
2022-08-25T08:02:24.905Z,35.00
2022-08-25T08:03:44.752Z,34.10
2022-08-25T08:04:24.737Z,34.30
2022-08-25T08:05:24.733Z,34.00
2022-08-25T08:06:24.733Z,36.40
2022-08-25T08:07:41.135Z,34.30
2022-08-25T08:08:24.737Z,33.70
2022-08-25T08:09:24.727Z,33.20
2022-08-25T08:10:48.013Z,28.20
2022-08-25T08:11:24.737Z,33.60
2022-08-25T08:12:24.724Z,31.50
2022-08-25T08:13:24.725Z,32.70
2022-08-25T08:14:24.725Z,31.60
2022-08-25T08:15:24.723Z,30.40
2022-08-25T08:16:24.786Z,31.20
2022-08-25T08:17:24.718Z,33.50
2022-08-25T08:18:24.715Z,38.40
2022-08-25T08:19:24.717Z,32.90
2022-08-25T08:20:24.714Z,34.80
2022-08-25T08:21:24.714Z,32.50
2022-08-25T08:22:24.713Z,36.00
2022-08-25T08:23:24.712Z,35.10
2022-08-25T08:24:44.459Z,36.10
2022-08-25T08:25:26.522Z,33.00
2022-08-25T08:26:36.485Z,33.70
2022-08-25T08:27:24.725Z,35.90
2022-08-25T08:28:24.707Z,35.30
2022-08-25T08:29:24.705Z,35.40
2022-08-25T08:30:26.248Z,35.10
2022-08-25T08:31:24.740Z,33.10
2022-08-25T08:32:31.414Z,35.10
2022-08-25T08:33:24.709Z,31.70
2022-08-25T08:34:25.184Z,33.40
2022-08-25T08:35:24.697Z,29.20
2022-08-25T08:36:25.525Z,31.10
2022-08-25T08:37:24.697Z,31.90
2022-08-25T08:38:27.146Z,31.80
2022-08-25T08:39:24.693Z,30.90
2022-08-25T08:40:24.828Z,30.70
2022-08-25T08:41:24.698Z,31.20
2022-08-25T08:42:24.689Z,31.40
2022-08-25T08:43:25.107Z,32.30
2022-08-25T08:44:24.692Z,30.70
2022-08-25T08:45:24.691Z,30.10
2022-08-25T08:46:26.006Z,32.10
2022-08-25T08:47:24.689Z,31.20
2022-08-25T08:48:24.691Z,31.60
2022-08-25T08:49:26.759Z,32.10
2022-08-25T08:50:27.745Z,29.40
2022-08-25T08:51:24.695Z,29.60
2022-08-25T08:52:24.684Z,31.10
2022-08-25T08:53:24.686Z,31.50
2022-08-25T08:54:24.703Z,31.90
2022-08-25T08:55:24.683Z,30.70
2022-08-25T08:56:24.680Z,29.50
2022-08-25T08:57:24.683Z,27.50
2022-08-25T08:58:26.304Z,32.70
2022-08-25T08:59:30.033Z,34.00
2022-08-25T09:00:24.682Z,33.60
2022-08-25T09:01:24.759Z,28.60
2022-08-25T09:02:38.836Z,29.60
2022-08-25T09:03:24.726Z,30.80
2022-08-25T09:04:24.677Z,31.60
2022-08-25T09:05:24.677Z,29.30
2022-08-25T09:06:24.678Z,30.90
2022-08-25T09:07:24.677Z,29.20
2022-08-25T09:08:24.678Z,30.40
2022-08-25T09:09:24.677Z,33.00
2022-08-25T09:10:24.678Z,32.20
2022-08-25T09:11:24.680Z,28.50
2022-08-25T09:12:24.680Z,29.20
2022-08-25T09:13:26.272Z,24.60
2022-08-25T09:14:30.194Z,26.20
2022-08-25T09:15:24.675Z,27.50
2022-08-25T09:16:33.993Z,27.20
2022-08-25T09:17:24.673Z,27.70
2022-08-25T09:18:24.669Z,27.30
2022-08-25T09:19:24.674Z,25.50
2022-08-25T09:20:24.674Z,28.00
2022-08-25T09:21:24.678Z,26.80
2022-08-25T09:22:33.400Z,28.30
2022-08-25T09:23:24.673Z,27.60
2022-08-25T09:24:24.674Z,24.70
2022-08-25T09:25:39.570Z,25.70
2022-08-25T09:26:24.672Z,29.00
2022-08-25T09:27:24.693Z,26.90
2022-08-25T09:28:24.670Z,28.30
2022-08-25T09:29:25.404Z,24.50
2022-08-25T09:30:25.094Z,26.80
2022-08-25T09:31:29.331Z,25.10
2022-08-25T09:32:31.321Z,27.40
2022-08-25T09:33:24.672Z,24.30
2022-08-25T09:34:24.672Z,27.60
2022-08-25T09:35:24.671Z,25.80
2022-08-25T09:36:24.677Z,25.60
2022-08-25T09:37:24.673Z,25.40
2022-08-25T09:38:24.672Z,28.70
2022-08-25T09:39:24.672Z,22.30
2022-08-25T09:40:24.763Z,24.40
2022-08-25T09:41:24.674Z,23.40
2022-08-25T09:42:24.673Z,26.10
2022-08-25T09:43:24.673Z,27.00
2022-08-25T09:44:26.013Z,28.00
2022-08-25T09:45:24.674Z,30.50
2022-08-25T09:46:26.971Z,31.30
2022-08-25T09:47:24.672Z,29.90
2022-08-25T09:48:24.674Z,27.50
2022-08-25T09:49:24.674Z,29.00
2022-08-25T09:50:24.675Z,33.20
2022-08-25T09:51:24.706Z,31.10
2022-08-25T09:52:25.210Z,33.80
2022-08-25T09:53:24.675Z,33.00
2022-08-25T09:54:25.584Z,34.30
2022-08-25T09:55:24.679Z,29.50
2022-08-25T09:56:24.674Z,32.10
2022-08-25T09:57:24.676Z,34.90
2022-08-25T09:58:24.676Z,31.40
2022-08-25T09:59:34.102Z,33.60
2022-08-25T10:00:24.671Z,33.00
2022-08-25T10:01:24.706Z,29.30
2022-08-25T10:02:24.677Z,31.00
2022-08-25T10:03:25.254Z,31.10
2022-08-25T10:04:24.678Z,32.70
2022-08-25T10:05:24.720Z,31.30
2022-08-25T10:06:24.678Z,32.70
2022-08-25T10:07:24.744Z,31.60
2022-08-25T10:08:24.892Z,31.80
2022-08-25T10:09:24.681Z,32.30
2022-08-25T10:10:24.679Z,32.00
2022-08-25T10:11:24.681Z,30.00
2022-08-25T10:12:24.971Z,28.30
2022-08-25T10:13:24.689Z,28.60
2022-08-25T10:14:24.826Z,26.90
2022-08-25T10:15:29.983Z,25.80
2022-08-25T10:16:25.201Z,24.70
2022-08-25T10:17:24.698Z,27.40
2022-08-25T10:18:25.734Z,21.80
2022-08-25T10:19:24.681Z,19.10
2022-08-25T10:20:24.679Z,17.90
2022-08-25T10:21:24.685Z,17.10
2022-08-25T10:22:24.773Z,20.30
2022-08-25T10:23:24.686Z,17.80
2022-08-25T10:24:24.685Z,19.40
2022-08-25T10:25:24.688Z,21.40
2022-08-25T10:26:24.686Z,23.00
2022-08-25T10:27:25.976Z,22.80
2022-08-25T10:28:24.688Z,20.60
2022-08-25T10:29:24.686Z,18.90
2022-08-25T10:30:24.689Z,18.10
2022-08-25T10:31:24.710Z,19.30
2022-08-25T10:32:24.688Z,17.60
2022-08-25T10:33:24.704Z,17.00
2022-08-25T10:34:24.690Z,15.70
2022-08-25T10:35:24.691Z,17.80
2022-08-25T10:36:24.695Z,17.30
2022-08-25T10:37:24.692Z,14.10
2022-08-25T10:38:27.187Z,16.20
2022-08-25T10:39:33.994Z,14.30
2022-08-25T10:40:24.739Z,18.00
2022-08-25T10:41:24.695Z,14.90
2022-08-25T10:42:25.970Z,16.20
2022-08-25T10:43:24.697Z,16.40
2022-08-25T10:44:24.697Z,17.90
2022-08-25T10:45:24.697Z,15.20
2022-08-25T10:46:24.762Z,15.90
2022-08-25T10:47:24.700Z,15.00
2022-08-25T10:48:24.699Z,14.50
2022-08-25T10:49:24.700Z,12.80
2022-08-25T10:50:24.700Z,16.40
2022-08-25T10:51:25.694Z,15.10
2022-08-25T10:52:24.700Z,14.40
2022-08-25T10:53:24.704Z,14.70
2022-08-25T10:54:24.703Z,14.50
2022-08-25T10:55:24.703Z,14.40
2022-08-25T10:56:24.712Z,11.80
2022-08-25T10:57:24.703Z,13.80
2022-08-25T10:58:24.708Z,14.60
2022-08-25T10:59:24.705Z,13.70
2022-08-25T11:00:28.769Z,13.50
2022-08-25T11:01:28.197Z,13.70
2022-08-25T11:02:24.703Z,13.90
2022-08-25T11:03:25.584Z,13.30
2022-08-25T11:04:25.257Z,10.00
2022-08-25T11:05:25.011Z,14.50
2022-08-25T11:06:24.710Z,14.20
2022-08-25T11:07:24.712Z,12.60
2022-08-25T11:08:24.713Z,15.60
2022-08-25T11:09:24.716Z,14.10
2022-08-25T11:10:24.715Z,14.80
2022-08-25T11:11:24.717Z,14.60
2022-08-25T11:12:24.715Z,11.50
2022-08-25T11:13:24.720Z,11.80
2022-08-25T11:14:24.719Z,14.70
2022-08-25T11:15:24.720Z,11.60
2022-08-25T11:16:24.757Z,12.00
2022-08-25T11:17:24.726Z,10.90
2022-08-25T11:18:24.721Z,14.10
2022-08-25T11:19:24.726Z,13.70
2022-08-25T11:20:27.079Z,12.80
2022-08-25T11:21:24.727Z,11.70
2022-08-25T11:22:24.730Z,10.50
2022-08-25T11:23:24.727Z,12.00
2022-08-25T11:24:24.727Z,11.00
2022-08-25T11:25:24.730Z,13.90
2022-08-25T11:26:28.889Z,11.20
2022-08-25T11:27:24.772Z,13.50
2022-08-25T11:28:24.732Z,10.20
2022-08-25T11:29:24.730Z,14.20
2022-08-25T11:30:25.844Z,12.60
2022-08-25T11:31:24.736Z,12.20
2022-08-25T11:32:24.748Z,12.90
2022-08-25T11:33:24.742Z,12.40
2022-08-25T11:34:24.735Z,12.80
2022-08-25T11:35:24.738Z,12.20
2022-08-25T11:36:24.742Z,13.20
2022-08-25T11:37:24.742Z,12.70
2022-08-25T11:38:24.743Z,15.50
2022-08-25T11:39:24.744Z,15.10
2022-08-25T11:40:24.796Z,12.20
2022-08-25T11:41:24.745Z,11.90
2022-08-25T11:42:24.746Z,14.20
2022-08-25T11:43:24.749Z,9.80
2022-08-25T11:44:24.751Z,15.70
2022-08-25T11:45:24.753Z,10.50
2022-08-25T11:46:26.182Z,9.60
2022-08-25T11:47:24.753Z,12.00
2022-08-25T11:48:24.791Z,16.60
2022-08-25T11:49:24.754Z,13.80
2022-08-25T11:50:25.842Z,11.10
2022-08-25T11:51:24.757Z,11.70
2022-08-25T11:52:28.903Z,13.70
2022-08-25T11:53:26.900Z,14.20
2022-08-25T11:54:24.763Z,12.90
2022-08-25T11:55:24.765Z,12.30
2022-08-25T11:56:24.765Z,11.50
2022-08-25T11:57:24.765Z,13.30
2022-08-25T11:58:24.765Z,14.20
2022-08-25T11:59:24.767Z,11.90
2022-08-25T12:00:24.783Z,12.80
2022-08-25T12:01:24.772Z,11.40
2022-08-25T12:02:24.772Z,13.50
2022-08-25T12:03:24.779Z,13.50
2022-08-25T12:04:24.808Z,12.30
2022-08-25T12:05:24.818Z,13.50
2022-08-25T12:06:24.780Z,15.00
2022-08-25T12:07:24.780Z,13.40
2022-08-25T12:08:24.781Z,14.00
2022-08-25T12:09:24.781Z,14.30
2022-08-25T12:10:24.782Z,14.70
2022-08-25T12:11:24.783Z,13.00
2022-08-25T12:12:24.786Z,12.40
2022-08-25T12:13:24.787Z,13.30
2022-08-25T12:14:24.790Z,13.60
2022-08-25T12:15:24.789Z,11.40
2022-08-25T12:16:24.835Z,14.10
2022-08-25T12:17:24.791Z,12.70
2022-08-25T12:18:24.801Z,11.20
2022-08-25T12:19:24.800Z,13.40
2022-08-25T12:20:24.818Z,13.60
2022-08-25T12:21:24.798Z,15.40
2022-08-25T12:22:24.801Z,14.30
2022-08-25T12:23:24.803Z,14.30
2022-08-25T12:24:24.804Z,12.80
2022-08-25T12:25:24.818Z,14.00
2022-08-25T12:26:24.806Z,13.90
2022-08-25T12:27:24.806Z,14.70
2022-08-25T12:28:24.811Z,12.30
2022-08-25T12:29:24.811Z,15.50
2022-08-25T12:30:26.274Z,11.70
2022-08-25T12:31:24.814Z,15.30
2022-08-25T12:32:24.817Z,15.10
2022-08-25T12:33:24.818Z,16.60
2022-08-25T12:34:26.854Z,13.70
2022-08-25T12:35:24.826Z,13.30
2022-08-25T12:36:24.822Z,14.90
2022-08-25T12:37:24.825Z,17.70
2022-08-25T12:38:24.823Z,17.50
2022-08-25T12:39:24.834Z,14.80
2022-08-25T12:40:24.874Z,16.30
2022-08-25T12:41:24.832Z,14.00
2022-08-25T12:42:26.281Z,19.50
2022-08-25T12:43:25.095Z,14.40
2022-08-25T12:44:24.837Z,11.30
2022-08-25T12:45:24.837Z,13.40
2022-08-25T12:46:24.871Z,14.60
2022-08-25T12:47:24.841Z,14.80
2022-08-25T12:48:24.843Z,13.10